Time,TemperatureF,DewpointF,PressureIn,WindDirection,WindDirectionDegrees,WindSpeedMPH,WindSpeedGustMPH,Humidity,HourlyPrecipIn,Conditions,Clouds,dailyrainin,SoftwareType,DateUTC
2013-02-05 00:01:00,31.0,30.0,29.95,North,0,0.0,0.0,97,-99.99,,,-99.99,,2013-02-05 08:01:00,
2013-02-05 00:11:00,31.0,30.0,29.95,North,0,0.0,0.0,97,-99.99,,,-99.99,,2013-02-05 08:11:00,
2013-02-05 00:21:00,31.0,30.0,29.95,North,0,0.0,0.0,97,-99.99,,,-99.99,,2013-02-05 08:21:00,
2013-02-05 00:31:00,32.0,32.0,29.95,North,0,0.0,0.0,98,-99.99,,,-99.99,,2013-02-05 08:31:00,
2013-02-05 00:41:00,32.0,32.0,29.95,North,0,0.0,0.0,98,-99.99,,,-99.99,,2013-02-05 08:41:00,
2013-02-05 00:52:00,32.0,32.0,29.95,North,0,0.0,0.0,98,-99.99,,,-99.99,,2013-02-05 08:52:00,
2013-02-05 01:02:00,32.0,32.0,29.95,North,0,0.0,0.0,98,-99.99,,,-99.99,,2013-02-05 09:02:00,
2013-02-05 01:11:00,32.0,32.0,29.94,North,0,0.0,0.0,98,-99.99,,,-99.99,,2013-02-05 09:11:00,
2013-02-05 01:21:00,32.0,32.0,29.94,North,0,0.0,0.0,98,-99.99,,,-99.99,,2013-02-05 09:21:00,
2013-02-05 01:31:00,32.0,32.0,29.93,North,0,0.0,0.0,98,-99.99,,,-99.99,,2013-02-05 09:31:00,
2013-02-05 01:41:00,32.0,32.0,29.93,North,0,0.0,0.0,98,-99.99,,,-99.99,,2013-02-05 09:41:00,
2013-02-05 01:51:00,32.0,32.0,29.92,North,0,0.0,0.0,98,-99.99,,,-99.99,,2013-02-05 09:51:00,
2013-02-05 02:01:00,32.0,32.0,29.93,North,0,0.0,0.0,98,-99.99,,,-99.99,,2013-02-05 10:01:00,
2013-02-05 02:11:00,32.0,32.0,29.93,North,0,0.0,0.0,98,-99.99,,,-99.99,,2013-02-05 10:11:00,
2013-02-05 02:21:00,32.0,32.0,29.93,North,0,0.0,0.0,98,-99.99,,,-99.99,,2013-02-05 10:21:00,
2013-02-05 02:31:00,32.0,32.0,29.93,North,0,0.0,0.0,98,-99.99,,,-99.99,,2013-02-05 10:31:00,
2013-02-05 02:42:00,32.0,32.0,29.93,North,0,0.0,0.0,98,-99.99,,,-99.99,,2013-02-05 10:42:00,
2013-02-05 02:52:00,31.0,31.0,29.92,North,0,0.0,0.0,98,-99.99,,,-99.99,,2013-02-05 10:52:00,
2013-02-05 03:01:00,31.0,31.0,29.92,North,0,0.0,0.0,98,-99.99,,,-99.99,,2013-02-05 11:01:00,
2013-02-05 03:11:00,31.0,31.0,29.92,North,0,0.0,0.0,98,-99.99,,,-99.99,,2013-02-05 11:11:00,
2013-02-05 03:21:00,31.0,31.0,29.91,North,0,0.0,0.0,98,-99.99,,,-99.99,,2013-02-05 11:21:00,
2013-02-05 03:31:00,32.0,32.0,29.91,North,0,0.0,0.0,98,-99.99,,,-99.99,,2013-02-05 11:31:00,
2013-02-05 03:41:00,32.0,32.0,29.91,North,0,0.0,0.0,98,-99.99,,,-99.99,,2013-02-05 11:41:00,
2013-02-05 03:52:00,32.0,32.0,29.90,North,0,0.0,0.0,98,-99.99,,,-99.99,,2013-02-05 11:52:00,
2013-02-05 04:01:00,32.0,32.0,29.90,North,0,0.0,0.0,99,-99.99,,,-99.99,,2013-02-05 12:01:00,
2013-02-05 04:12:00,32.0,32.0,29.90,North,0,0.0,0.0,99,-99.99,,,-99.99,,2013-02-05 12:12:00,
2013-02-05 04:21:00,32.0,32.0,29.89,North,0,0.0,0.0,98,-99.99,,,-99.99,,2013-02-05 12:21:00,
2013-02-05 04:31:00,32.0,32.0,29.88,North,0,0.0,0.0,98,-99.99,,,-99.99,,2013-02-05 12:31:00,
2013-02-05 04:41:00,32.0,32.0,29.87,North,0,0.0,0.0,98,-99.99,,,-99.99,,2013-02-05 12:41:00,
2013-02-05 04:52:00,32.0,32.0,29.87,North,0,0.0,0.0,98,-99.99,,,-99.99,,2013-02-05 12:52:00,
2013-02-05 05:01:00,31.0,31.0,29.86,North,0,0.0,0.0,98,-99.99,,,-99.99,,2013-02-05 13:01:00,
2013-02-05 05:11:00,31.0,31.0,29.86,North,0,0.0,0.0,98,-99.99,,,-99.99,,2013-02-05 13:11:00,
2013-02-05 05:21:00,31.0,31.0,29.86,North,0,0.0,0.0,98,-99.99,,,-99.99,,2013-02-05 13:21:00,
2013-02-05 05:31:00,31.0,31.0,29.85,North,0,0.0,0.0,98,-99.99,,,-99.99,,2013-02-05 13:31:00,
2013-02-05 05:41:00,31.0,31.0,29.85,North,0,0.0,0.0,98,-99.99,,,-99.99,,2013-02-05 13:41:00,
2013-02-05 05:52:00,31.0,31.0,29.85,North,0,0.0,0.0,98,-99.99,,,-99.99,,2013-02-05 13:52:00,
2013-02-05 06:01:00,31.0,31.0,29.85,North,0,0.0,0.0,98,-99.99,,,-99.99,,2013-02-05 14:01:00,
2013-02-05 06:11:00,31.0,31.0,29.85,North,0,0.0,0.0,98,-99.99,,,-99.99,,2013-02-05 14:11:00,
2013-02-05 06:21:00,31.0,31.0,29.85,North,0,0.0,0.0,98,-99.99,,,-99.99,,2013-02-05 14:21:00,
2013-02-05 06:31:00,31.0,31.0,29.85,North,0,0.0,0.0,98,-99.99,,,-99.99,,2013-02-05 14:31:00,
2013-02-05 06:41:00,31.0,31.0,29.85,North,0,0.0,0.0,98,-99.99,,,-99.99,,2013-02-05 14:41:00,
2013-02-05 06:52:00,30.0,29.0,29.85,North,0,0.0,0.0,98,-99.99,,,-99.99,,2013-02-05 14:52:00,
2013-02-05 07:01:00,30.0,29.0,29.85,North,0,0.0,0.0,98,-99.99,,,-99.99,,2013-02-05 15:01:00,
2013-02-05 07:11:00,30.0,29.0,29.85,North,0,0.0,0.0,98,-99.99,,,-99.99,,2013-02-05 15:11:00,
2013-02-05 07:21:00,30.0,29.0,29.85,North,0,0.0,0.0,98,-99.99,,,-99.99,,2013-02-05 15:21:00,
2013-02-05 07:32:00,30.0,30.0,29.84,North,0,0.0,0.0,99,-99.99,,,-99.99,,2013-02-05 15:32:00,
2013-02-05 07:41:00,30.0,30.0,29.84,North,0,0.0,0.0,99,-99.99,,,-99.99,,2013-02-05 15:41:00,
2013-02-05 07:52:00,30.0,30.0,29.84,North,0,0.0,0.0,99,-99.99,,,-99.99,,2013-02-05 15:52:00,
2013-02-05 08:01:00,30.0,30.0,29.84,North,0,0.0,0.0,99,-99.99,,,-99.99,,2013-02-05 16:01:00,
2013-02-05 08:11:00,30.0,30.0,29.84,North,0,0.0,0.0,99,-99.99,,,-99.99,,2013-02-05 16:11:00,
2013-02-05 08:22:00,31.0,31.0,29.84,North,0,0.0,0.0,99,-99.99,,,-99.99,,2013-02-05 16:22:00,
2013-02-05 08:32:00,32.0,32.0,29.83,North,0,0.0,0.0,99,-99.99,,,-99.99,,2013-02-05 16:32:00,
2013-02-05 08:41:00,32.0,32.0,29.83,North,0,0.0,0.0,99,-99.99,,,-99.99,,2013-02-05 16:41:00,
2013-02-05 08:52:00,32.0,32.0,29.83,North,0,0.0,0.0,99,-99.99,,,-99.99,,2013-02-05 16:52:00,
2013-02-05 09:01:00,32.0,32.0,29.84,North,0,0.0,0.0,99,-99.99,,,-99.99,,2013-02-05 17:01:00,
2013-02-05 09:11:00,32.0,32.0,29.84,North,0,0.0,0.0,99,-99.99,,,-99.99,,2013-02-05 17:11:00,
2013-02-05 09:21:00,33.0,33.0,29.83,North,0,0.0,0.0,99,-99.99,,,-99.99,,2013-02-05 17:21:00,
2013-02-05 09:32:00,34.0,34.0,29.84,North,0,0.0,0.0,99,-99.99,,,-99.99,,2013-02-05 17:32:00,
2013-02-05 09:41:00,34.0,34.0,29.84,North,0,0.0,0.0,99,-99.99,,,-99.99,,2013-02-05 17:41:00,
2013-02-05 09:52:00,35.0,35.0,29.83,South,177,0.0,6.0,99,-99.99,,,-99.99,,2013-02-05 17:52:00,
2013-02-05 10:01:00,38.0,38.0,29.83,SW,236,7.0,12.0,99,-99.99,,,-99.99,,2013-02-05 18:01:00,
2013-02-05 10:11:00,38.0,38.0,29.83,SW,236,7.0,12.0,99,-99.99,,,-99.99,,2013-02-05 18:11:00,
2013-02-05 10:21:00,40.0,33.0,29.83,SSW,212,9.0,11.0,77,-99.99,,,-99.99,,2013-02-05 18:21:00,
2013-02-05 10:31:00,41.0,30.0,29.84,SW,214,6.0,13.0,65,-99.99,,,-99.99,,2013-02-05 18:31:00,
2013-02-05 10:42:00,41.0,30.0,29.84,SW,214,6.0,13.0,65,-99.99,,,-99.99,,2013-02-05 18:42:00,
2013-02-05 10:52:00,42.0,30.0,29.85,WSW,240,6.0,12.0,62,-99.99,,,-99.99,,2013-02-05 18:52:00,
2013-02-05 11:01:00,42.0,30.0,29.85,SW,219,3.0,8.0,61,-99.99,,,-99.99,,2013-02-05 19:01:00,
2013-02-05 11:11:00,42.0,30.0,29.85,SW,219,3.0,8.0,61,-99.99,,,-99.99,,2013-02-05 19:11:00,
2013-02-05 11:21:00,42.0,29.0,29.84,SSW,203,7.0,12.0,59,-99.99,,,-99.99,,2013-02-05 19:21:00,
2013-02-05 11:31:00,42.0,28.0,29.84,SSW,207,7.0,12.0,57,-99.99,,,-99.99,,2013-02-05 19:31:00,
2013-02-05 11:42:00,42.0,28.0,29.84,SSW,207,7.0,12.0,57,-99.99,,,-99.99,,2013-02-05 19:42:00,
2013-02-05 11:52:00,42.0,27.0,29.83,SW,224,6.0,13.0,56,-99.99,,,-99.99,,2013-02-05 19:52:00,
2013-02-05 12:01:00,42.0,27.0,29.82,SSW,203,6.0,13.0,55,-99.99,,,-99.99,,2013-02-05 20:01:00,
2013-02-05 12:11:00,42.0,27.0,29.82,SSW,203,6.0,13.0,55,-99.99,,,-99.99,,2013-02-05 20:11:00,
2013-02-05 12:21:00,42.0,27.0,29.82,WSW,249,6.0,11.0,56,-99.99,,,-99.99,,2013-02-05 20:21:00,
2013-02-05 12:31:00,42.0,27.0,29.81,SSW,208,8.0,16.0,54,-99.99,,,-99.99,,2013-02-05 20:31:00,
2013-02-05 12:41:00,42.0,27.0,29.81,SSW,208,8.0,16.0,54,-99.99,,,-99.99,,2013-02-05 20:41:00,
2013-02-05 12:52:00,42.0,28.0,29.81,SW,233,4.0,9.0,57,-99.99,,,-99.99,,2013-02-05 20:52:00,
2013-02-05 13:01:00,43.0,28.0,29.81,SW,225,5.0,9.0,54,-99.99,,,-99.99,,2013-02-05 21:01:00,
2013-02-05 13:11:00,43.0,28.0,29.81,SW,225,5.0,9.0,54,-99.99,,,-99.99,,2013-02-05 21:11:00,
2013-02-05 13:21:00,42.0,27.0,29.80,SSW,201,6.0,12.0,54,-99.99,,,-99.99,,2013-02-05 21:21:00,
2013-02-05 13:31:00,42.0,26.0,29.81,SW,229,5.0,11.0,53,-99.99,,,-99.99,,2013-02-05 21:31:00,
2013-02-05 13:41:00,42.0,26.0,29.81,SW,229,5.0,11.0,53,-99.99,,,-99.99,,2013-02-05 21:41:00,
2013-02-05 13:52:00,42.0,27.0,29.82,WSW,239,6.0,10.0,54,-99.99,,,-99.99,,2013-02-05 21:52:00,
2013-02-05 14:01:00,42.0,29.0,29.82,WSW,238,5.0,10.0,60,-99.99,,,-99.99,,2013-02-05 22:01:00,
2013-02-05 14:11:00,42.0,29.0,29.82,WSW,238,5.0,10.0,60,-99.99,,,-99.99,,2013-02-05 22:11:00,
2013-02-05 14:21:00,41.0,31.0,29.82,SSW,203,5.0,11.0,68,-99.99,,,-99.99,,2013-02-05 22:21:00,
2013-02-05 14:31:00,40.0,31.0,29.81,SW,233,7.0,10.0,70,-99.99,,,-99.99,,2013-02-05 22:31:00,
2013-02-05 14:41:00,40.0,31.0,29.81,SW,233,7.0,10.0,70,-99.99,,,-99.99,,2013-02-05 22:41:00,
2013-02-05 14:52:00,40.0,32.0,29.81,SW,226,6.0,9.0,73,-99.99,,,-99.99,,2013-02-05 22:52:00,
2013-02-05 15:01:00,41.0,34.0,29.82,SW,236,4.0,6.0,75,-99.99,,,-99.99,,2013-02-05 23:01:00,
2013-02-05 15:11:00,41.0,34.0,29.82,SW,236,4.0,6.0,75,-99.99,,,-99.99,,2013-02-05 23:11:00,
2013-02-05 15:21:00,41.0,32.0,29.82,SSW,212,8.0,14.0,70,-99.99,,,-99.99,,2013-02-05 23:21:00,
2013-02-05 15:31:00,40.0,31.0,29.82,SW,221,9.0,14.0,71,-99.99,,,-99.99,,2013-02-05 23:31:00,
2013-02-05 15:41:00,40.0,31.0,29.82,SW,221,9.0,14.0,71,-99.99,,,-99.99,,2013-02-05 23:41:00,
2013-02-05 15:52:00,40.0,31.0,29.82,SW,214,11.0,17.0,71,-99.99,,,-99.99,,2013-02-05 23:52:00,
2013-02-05 16:01:00,39.0,32.0,29.82,SSW,205,9.0,15.0,75,-99.99,,,-99.99,,2013-02-06 00:01:00,
2013-02-05 16:11:00,39.0,32.0,29.82,SSW,205,9.0,15.0,75,-99.99,,,-99.99,,2013-02-06 00:11:00,
2013-02-05 16:21:00,39.0,32.0,29.82,SW,217,6.0,10.0,75,-99.99,,,-99.99,,2013-02-06 00:21:00,
2013-02-05 16:31:00,39.0,32.0,29.82,SSW,201,8.0,16.0,76,-99.99,,,-99.99,,2013-02-06 00:31:00,
2013-02-05 16:41:00,39.0,32.0,29.82,SSW,201,8.0,16.0,76,-99.99,,,-99.99,,2013-02-06 00:41:00,
2013-02-05 16:52:00,40.0,33.0,29.82,SSW,195,8.0,11.0,76,-99.99,,,-99.99,,2013-02-06 00:52:00,
2013-02-05 17:01:00,39.0,33.0,29.83,SW,226,9.0,14.0,78,-99.99,,,-99.99,,2013-02-06 01:01:00,
2013-02-05 17:11:00,39.0,33.0,29.83,SW,226,9.0,14.0,78,-99.99,,,-99.99,,2013-02-06 01:11:00,
2013-02-05 17:21:00,39.0,33.0,29.83,SSW,208,8.0,12.0,79,-99.99,,,-99.99,,2013-02-06 01:21:00,
2013-02-05 17:31:00,39.0,34.0,29.83,SW,226,7.0,10.0,81,-99.99,,,-99.99,,2013-02-06 01:31:00,
2013-02-05 17:41:00,39.0,34.0,29.83,SW,226,7.0,10.0,81,-99.99,,,-99.99,,2013-02-06 01:41:00,
2013-02-05 17:52:00,39.0,34.0,29.84,SW,228,7.0,11.0,82,-99.99,,,-99.99,,2013-02-06 01:52:00,
2013-02-05 18:01:00,39.0,34.0,29.85,SSW,205,7.0,11.0,82,-99.99,,,-99.99,,2013-02-06 02:01:00,
2013-02-05 18:11:00,39.0,34.0,29.85,SSW,205,7.0,11.0,82,-99.99,,,-99.99,,2013-02-06 02:11:00,
2013-02-05 18:21:00,39.0,34.0,29.84,SSW,203,7.0,11.0,82,-99.99,,,-99.99,,2013-02-06 02:21:00,
2013-02-05 18:31:00,39.0,34.0,29.84,SSW,197,6.0,9.0,82,-99.99,,,-99.99,,2013-02-06 02:31:00,
2013-02-05 18:41:00,39.0,34.0,29.84,SSW,197,6.0,9.0,82,-99.99,,,-99.99,,2013-02-06 02:41:00,
2013-02-05 18:52:00,38.0,34.0,29.85,SSW,205,8.0,12.0,84,-99.99,,,-99.99,,2013-02-06 02:52:00,
2013-02-05 19:02:00,38.0,34.0,29.84,SW,224,6.0,10.0,86,-99.99,,,-99.99,,2013-02-06 03:02:00,
2013-02-05 19:11:00,38.0,34.0,29.84,SW,224,6.0,10.0,86,-99.99,,,-99.99,,2013-02-06 03:11:00,
2013-02-05 19:21:00,38.0,34.0,29.85,WSW,242,9.0,13.0,87,-99.99,,,-99.99,,2013-02-06 03:21:00,
2013-02-05 19:31:00,38.0,34.0,29.85,SW,222,8.0,11.0,87,-99.99,,,-99.99,,2013-02-06 03:31:00,
2013-02-05 19:41:00,38.0,34.0,29.85,SW,222,8.0,11.0,87,-99.99,,,-99.99,,2013-02-06 03:41:00,
2013-02-05 19:52:00,38.0,34.0,29.85,WSW,249,9.0,11.0,87,-99.99,,,-99.99,,2013-02-06 03:52:00,
2013-02-05 20:01:00,38.0,34.0,29.85,South,184,9.0,14.0,87,-99.99,,,-99.99,,2013-02-06 04:01:00,
2013-02-05 20:11:00,38.0,34.0,29.85,South,184,9.0,14.0,87,-99.99,,,-99.99,,2013-02-06 04:11:00,
2013-02-05 20:21:00,38.0,34.0,29.85,SW,221,6.0,10.0,87,-99.99,,,-99.99,,2013-02-06 04:21:00,
2013-02-05 20:31:00,37.0,34.0,29.85,SW,219,8.0,13.0,88,-99.99,,,-99.99,,2013-02-06 04:31:00,
2013-02-05 20:41:00,37.0,34.0,29.85,SW,219,8.0,13.0,88,-99.99,,,-99.99,,2013-02-06 04:41:00,
2013-02-05 20:52:00,37.0,34.0,29.86,SSW,211,8.0,11.0,87,-99.99,,,-99.99,,2013-02-06 04:52:00,
2013-02-05 21:01:00,37.0,33.0,29.86,SSW,207,8.0,13.0,86,-99.99,,,-99.99,,2013-02-06 05:01:00,
2013-02-05 21:11:00,37.0,33.0,29.86,SSW,207,8.0,13.0,86,-99.99,,,-99.99,,2013-02-06 05:11:00,
2013-02-05 21:22:00,37.0,33.0,29.87,WSW,248,9.0,12.0,86,-99.99,,,-99.99,,2013-02-06 05:22:00,
2013-02-05 21:31:00,37.0,33.0,29.87,SW,232,9.0,13.0,84,-99.99,,,-99.99,,2013-02-06 05:31:00,
2013-02-05 21:41:00,37.0,33.0,29.87,SW,232,9.0,13.0,84,-99.99,,,-99.99,,2013-02-06 05:41:00,
2013-02-05 21:53:00,37.0,32.0,29.87,SW,215,9.0,14.0,83,-99.99,,,-99.99,,2013-02-06 05:53:00,
2013-02-05 22:01:00,37.0,32.0,29.87,SW,215,9.0,14.0,83,-99.99,,,-99.99,,2013-02-06 06:01:00,
2013-02-05 22:11:00,37.0,32.0,29.87,SW,215,9.0,14.0,83,-99.99,,,-99.99,,2013-02-06 06:11:00,
2013-02-05 22:21:00,37.0,32.0,29.87,SSW,201,9.0,13.0,81,-99.99,,,-99.99,,2013-02-06 06:21:00,
2013-02-05 22:31:00,37.0,31.0,29.88,SSW,197,8.0,14.0,80,-99.99,,,-99.99,,2013-02-06 06:31:00,
2013-02-05 22:42:00,37.0,31.0,29.88,SSW,197,8.0,14.0,80,-99.99,,,-99.99,,2013-02-06 06:42:00,
2013-02-05 22:51:00,37.0,31.0,29.88,SW,218,9.0,13.0,79,-99.99,,,-99.99,,2013-02-06 06:51:00,
2013-02-05 23:01:00,37.0,31.0,29.89,SW,217,9.0,13.0,79,-99.99,,,-99.99,,2013-02-06 07:01:00,
2013-02-05 23:11:00,37.0,31.0,29.89,SW,217,9.0,13.0,79,-99.99,,,-99.99,,2013-02-06 07:11:00,
2013-02-05 23:21:00,37.0,31.0,29.90,SSW,205,9.0,15.0,79,-99.99,,,-99.99,,2013-02-06 07:21:00,
2013-02-05 23:32:00,37.0,31.0,29.90,SSW,195,9.0,13.0,78,-99.99,,,-99.99,,2013-02-06 07:32:00,
2013-02-05 23:41:00,37.0,31.0,29.90,SSW,195,9.0,13.0,78,-99.99,,,-99.99,,2013-02-06 07:41:00,
2013-02-05 23:52:00,37.0,30.0,29.90,SW,225,10.0,14.0,77,-99.99,,,-99.99,,2013-02-06 07:52:00,